Big Bear Station Historical Data
Daily Summary for April 29, 2017 Units:  English    Metric   Both
« Previous Day
Next Day »
Daily Weekly Monthly Yearly Custom
  High: Low: Average:
Temperature: 61.7 °F 32.0 °F 44.2 °F
Dew Point: 22.6 °F 11.1 °F 15.4 °F
Humidity: 54 % 14 % 33 %
Wind Speed: 11.4 mph 0.0 mph 3.2 mph
Wind Gust: -999.0 mph - -
Wind:- - SSW
Pressure: 23.60 in 23.41 in -
Precipitation: 0.00 in    
Historical Graphs
 
 
Tabular Data for April 29, 2017
Time Temperature Dew Point Pressure Wind Wind Speed Wind Gust Humidity Rainfall Rate (Hourly)
00:02 39.0 °F 13.0 °F 23.41 in SSE 5.3 mph -999.0 mph 34 % 0 in
00:18 38.5 °F 12.5 °F 23.41 in NE 3.2 mph -999.0 mph 34 % 0 in
00:33 38.3 °F 13.0 °F 23.42 in NNW 4.7 mph -999.0 mph 35 % 0 in
00:48 37.8 °F 12.6 °F 23.42 in SSW 3.7 mph -999.0 mph 35 % 0 in
01:03 37.2 °F 12.7 °F 23.42 in NNE 2.2 mph -999.0 mph 36 % 0 in
01:18 37.2 °F 11.4 °F 23.42 in NW 4.2 mph -999.0 mph 34 % 0 in
01:34 37.0 °F 11.9 °F 23.41 in SSW 4.2 mph -999.0 mph 35 % 0 in
01:49 36.9 °F 11.1 °F 23.41 in WNW 4.2 mph -999.0 mph 34 % 0 in
02:04 36.5 °F 12.0 °F 23.41 in WNW 1.7 mph -999.0 mph 36 % 0 in
02:20 36.0 °F 12.2 °F 23.42 in West 2.7 mph -999.0 mph 37 % 0 in
02:35 35.6 °F 11.9 °F 23.42 in ESE 1.7 mph -999.0 mph 37 % 0 in
02:50 35.4 °F 12.3 °F 23.42 in SSW 2.2 mph -999.0 mph 38 % 0 in
03:05 35.2 °F 12.1 °F 23.42 in East 1.7 mph -999.0 mph 38 % 0 in
03:20 34.9 °F 12.4 °F 23.42 in SSE 5.8 mph -999.0 mph 39 % 0 in
03:36 34.7 °F 11.7 °F 23.42 in SE 1.1 mph -999.0 mph 38 % 0 in
03:51 34.9 °F 11.8 °F 23.42 in SSE 4.7 mph -999.0 mph 38 % 0 in
04:06 34.3 °F 11.9 °F 23.42 in NNE 3.7 mph -999.0 mph 39 % 0 in
04:21 34.0 °F 12.2 °F 23.42 in SSW 1.1 mph -999.0 mph 40 % 0 in
04:36 34.0 °F 11.6 °F 23.43 in West 1.1 mph -999.0 mph 39 % 0 in
04:52 34.0 °F 13.3 °F 23.43 in ESE 7.3 mph -999.0 mph 42 % 0 in
05:07 34.2 °F 12.9 °F 23.43 in West 4.7 mph -999.0 mph 41 % 0 in
05:23 33.3 °F 12.1 °F 23.43 in SE 1.7 mph -999.0 mph 41 % 0 in
05:38 33.1 °F 13.5 °F 23.44 in ESE 1.7 mph -999.0 mph 44 % 0 in
05:53 32.4 °F 13.4 °F 23.44 in East 2.7 mph -999.0 mph 45 % 0 in
06:08 32.0 °F 14.0 °F 23.45 in NW 3.2 mph -999.0 mph 47 % 0 in
06:24 32.4 °F 13.9 °F 23.45 in SSW 1.1 mph -999.0 mph 46 % 0 in
06:39 32.5 °F 13.5 °F 23.45 in SSW 1.7 mph -999.0 mph 45 % 0 in
06:54 33.1 °F 14.5 °F 23.46 in NNE 1.7 mph -999.0 mph 46 % 0 in
07:09 33.6 °F 14.5 °F 23.46 in Calm   -999.0 mph 45 % 0 in
07:25 34.3 °F 15.6 °F 23.47 in NNW 5.3 mph -999.0 mph 46 % 0 in
07:40 35.4 °F 15.6 °F 23.47 in Calm   -999.0 mph 44 % 0 in
07:55 36.3 °F 14.3 °F 23.48 in NE 2.2 mph -999.0 mph 40 % 0 in
08:10 37.6 °F 14.3 °F 23.48 in WSW 2.7 mph -999.0 mph 38 % 0 in
08:25 38.5 °F 15.1 °F 23.48 in SSE 2.2 mph -999.0 mph 38 % 0 in
08:41 39.7 °F 16.7 °F 23.49 in NW 2.7 mph -999.0 mph 39 % 0 in
08:56 40.3 °F 15.4 °F 23.49 in NNE 3.2 mph -999.0 mph 36 % 0 in
09:11 41.5 °F 16.5 °F 23.50 in NNW 3.2 mph -999.0 mph 36 % 0 in
09:26 42.6 °F 17.5 °F 23.51 in West 2.2 mph -999.0 mph 36 % 0 in
09:42 42.8 °F 17.7 °F 23.50 in ENE 3.7 mph -999.0 mph 36 % 0 in
09:57 43.9 °F 17.3 °F 23.51 in NW 3.7 mph -999.0 mph 34 % 0 in
10:12 44.8 °F 16.7 °F 23.51 in WNW 5.3 mph -999.0 mph 32 % 0 in
10:27 45.7 °F 16.0 °F 23.51 in NNE 3.7 mph -999.0 mph 30 % 0 in
10:43 46.4 °F 17.4 °F 23.51 in NNE 5.3 mph -999.0 mph 31 % 0 in
10:58 47.7 °F 17.0 °F 23.52 in WNW 7.3 mph -999.0 mph 29 % 0 in
11:14 49.6 °F 16.1 °F 23.52 in SE 2.7 mph -999.0 mph 26 % 0 in
11:29 50.5 °F 16.9 °F 23.52 in North 2.2 mph -999.0 mph 26 % 0 in
11:44 52.3 °F 16.5 °F 23.52 in North 1.7 mph -999.0 mph 24 % 0 in
12:00 53.2 °F 17.3 °F 23.53 in NNW 6.3 mph -999.0 mph 24 % 0 in
12:15 55.2 °F 17.0 °F 23.52 in North 11.4 mph -999.0 mph 22 % 0 in
12:31 55.2 °F 17.0 °F 23.53 in NNW 4.2 mph -999.0 mph 22 % 0 in
12:46 55.0 °F 14.6 °F 23.53 in North 4.7 mph -999.0 mph 20 % 0 in
13:02 55.2 °F 13.6 °F 23.53 in WNW 7.3 mph -999.0 mph 19 % 0 in
13:17 55.2 °F 14.8 °F 23.54 in West 4.2 mph -999.0 mph 20 % 0 in
13:32 55.8 °F 18.5 °F 23.54 in NNE 5.8 mph -999.0 mph 23 % 0 in
13:48 54.7 °F 13.2 °F 23.54 in NE 2.7 mph -999.0 mph 19 % 0 in
14:03 56.5 °F 15.9 °F 23.54 in NNW 8.3 mph -999.0 mph 20 % 0 in
14:18 57.0 °F 15.1 °F 23.53 in NW 6.8 mph -999.0 mph 19 % 0 in
14:33 56.7 °F 17.2 °F 23.54 in East 2.2 mph -999.0 mph 21 % 0 in
14:48 55.6 °F 13.9 °F 23.54 in NNW 6.8 mph -999.0 mph 19 % 0 in
15:04 57.2 °F 16.5 °F 23.54 in ENE 4.2 mph -999.0 mph 20 % 0 in
15:19 56.7 °F 18.2 °F 23.53 in NNW 5.3 mph -999.0 mph 22 % 0 in
15:35 57.2 °F 14.0 °F 23.54 in NW 3.2 mph -999.0 mph 18 % 0 in
15:50 56.7 °F 13.6 °F 23.54 in WNW 5.8 mph -999.0 mph 18 % 0 in
16:05 56.3 °F 13.3 °F 23.54 in North 4.7 mph -999.0 mph 18 % 0 in
16:21 55.9 °F 11.7 °F 23.53 in NNW 5.8 mph -999.0 mph 17 % 0 in
16:36 58.1 °F 14.8 °F 23.53 in NNE 5.3 mph -999.0 mph 18 % 0 in
16:51 61.3 °F 13.2 °F 23.53 in NNE 4.7 mph -999.0 mph 15 % 0 in
17:06 59.7 °F 14.8 °F 23.53 in ESE 2.7 mph -999.0 mph 17 % 0 in
17:21 61.7 °F 12.0 °F 23.53 in ESE 2.2 mph -999.0 mph 14 % 0 in
17:37 61.5 °F 16.2 °F 23.53 in NW 5.3 mph -999.0 mph 17 % 0 in
17:52 58.8 °F 15.3 °F 23.53 in NNE 3.7 mph -999.0 mph 18 % 0 in
18:07 59.2 °F 14.4 °F 23.54 in WNW 1.7 mph -999.0 mph 17 % 0 in
18:23 60.4 °F 16.7 °F 23.54 in North 2.2 mph -999.0 mph 18 % 0 in
18:38 55.0 °F 15.7 °F 23.54 in North 3.2 mph -999.0 mph 21 % 0 in
18:53 52.9 °F 15.0 °F 23.54 in WNW 3.2 mph -999.0 mph 22 % 0 in
19:09 49.8 °F 16.3 °F 23.54 in North 3.2 mph -999.0 mph 26 % 0 in
19:24 48.7 °F 15.3 °F 23.55 in NNW 2.2 mph -999.0 mph 26 % 0 in
19:39 47.7 °F 15.3 °F 23.55 in NNW 1.1 mph -999.0 mph 27 % 0 in
19:54 45.7 °F 16.8 °F 23.56 in Calm   -999.0 mph 31 % 0 in
20:09 43.7 °F 18.5 °F 23.56 in South 1.7 mph -999.0 mph 36 % 0 in
20:25 42.6 °F 16.2 °F 23.57 in Calm   -999.0 mph 34 % 0 in
20:40 41.7 °F 17.9 °F 23.57 in Calm   -999.0 mph 38 % 0 in
20:56 40.5 °F 20.3 °F 23.57 in SSE 1.7 mph -999.0 mph 44 % 0 in
21:11 39.6 °F 22.0 °F 23.58 in SSE 1.1 mph -999.0 mph 49 % 0 in
21:27 38.7 °F 21.2 °F 23.58 in Calm   -999.0 mph 49 % 0 in
21:42 38.7 °F 22.6 °F 23.58 in South 2.2 mph -999.0 mph 52 % 0 in
21:57 38.7 °F 22.6 °F 23.58 in Calm   -999.0 mph 52 % 0 in
22:12 38.7 °F 21.6 °F 23.59 in SSW 1.7 mph -999.0 mph 50 % 0 in
22:28 37.8 °F 19.4 °F 23.59 in South 1.7 mph -999.0 mph 47 % 0 in
22:43 37.9 °F 20.9 °F 23.59 in South 1.7 mph -999.0 mph 50 % 0 in
22:58 37.2 °F 19.3 °F 23.59 in South 1.1 mph -999.0 mph 48 % 0 in
23:13 36.7 °F 19.3 °F 23.59 in South 2.2 mph -999.0 mph 49 % 0 in
23:29 36.3 °F 21.2 °F 23.59 in Calm   -999.0 mph 54 % 0 in
23:44 36.1 °F 20.6 °F 23.60 in SSE 1.7 mph -999.0 mph 53 % 0 in
Big Bear CA Weather
Compliments of Weather Underground - 1.5 mb